sensor_id;sensor_type;location;lat;lon;timestamp;P1;durP1;ratioP1;P2;durP2;ratioP2
16854;SDS011;8543;54.522;18.550;2023-02-22T00:00:10;4.20;;;1.90;;
16854;SDS011;8543;54.522;18.550;2023-02-22T00:02:59;3.90;;;2.00;;
16854;SDS011;8543;54.522;18.550;2023-02-22T00:05:26;4.40;;;1.90;;
16854;SDS011;8543;54.522;18.550;2023-02-22T00:07:52;4.60;;;2.10;;
16854;SDS011;8543;54.522;18.550;2023-02-22T00:10:21;4.00;;;2.50;;
16854;SDS011;8543;54.522;18.550;2023-02-22T00:12:48;4.70;;;2.30;;
16854;SDS011;8543;54.522;18.550;2023-02-22T00:15:17;3.80;;;2.00;;
16854;SDS011;8543;54.522;18.550;2023-02-22T00:17:43;4.80;;;2.20;;
16854;SDS011;8543;54.522;18.550;2023-02-22T00:20:09;4.50;;;2.50;;
16854;SDS011;8543;54.522;18.550;2023-02-22T00:22:41;4.60;;;2.10;;
16854;SDS011;8543;54.522;18.550;2023-02-22T00:25:08;4.60;;;2.00;;
16854;SDS011;8543;54.522;18.550;2023-02-22T00:27:34;4.30;;;2.10;;
16854;SDS011;8543;54.522;18.550;2023-02-22T00:30:00;3.70;;;2.20;;
16854;SDS011;8543;54.522;18.550;2023-02-22T00:32:25;4.20;;;2.10;;
16854;SDS011;8543;54.522;18.550;2023-02-22T00:34:51;3.60;;;2.10;;
16854;SDS011;8543;54.522;18.550;2023-02-22T00:37:18;4.10;;;2.20;;
16854;SDS011;8543;54.522;18.550;2023-02-22T00:39:47;6.70;;;2.30;;
16854;SDS011;8543;54.522;18.550;2023-02-22T00:42:14;3.60;;;2.10;;
16854;SDS011;8543;54.522;18.550;2023-02-22T00:44:40;4.80;;;2.30;;
16854;SDS011;8543;54.522;18.550;2023-02-22T00:47:06;3.60;;;2.20;;
16854;SDS011;8543;54.522;18.550;2023-02-22T00:49:32;4.70;;;2.40;;
16854;SDS011;8543;54.522;18.550;2023-02-22T00:51:59;3.90;;;2.20;;
16854;SDS011;8543;54.522;18.550;2023-02-22T00:54:24;5.20;;;2.40;;
16854;SDS011;8543;54.522;18.550;2023-02-22T00:56:50;4.10;;;2.30;;
16854;SDS011;8543;54.522;18.550;2023-02-22T00:59:15;4.80;;;2.40;;
16854;SDS011;8543;54.522;18.550;2023-02-22T01:01:41;4.10;;;2.20;;
16854;SDS011;8543;54.522;18.550;2023-02-22T01:04:07;5.00;;;2.70;;
16854;SDS011;8543;54.522;18.550;2023-02-22T01:06:33;4.70;;;2.20;;
16854;SDS011;8543;54.522;18.550;2023-02-22T01:08:59;4.20;;;1.90;;
16854;SDS011;8543;54.522;18.550;2023-02-22T01:11:26;4.90;;;2.40;;
16854;SDS011;8543;54.522;18.550;2023-02-22T01:13:52;4.70;;;2.40;;
16854;SDS011;8543;54.522;18.550;2023-02-22T01:16:18;4.60;;;2.00;;
16854;SDS011;8543;54.522;18.550;2023-02-22T01:18:44;3.70;;;2.20;;
16854;SDS011;8543;54.522;18.550;2023-02-22T01:21:09;4.50;;;2.30;;
16854;SDS011;8543;54.522;18.550;2023-02-22T01:23:35;3.20;;;2.00;;
16854;SDS011;8543;54.522;18.550;2023-02-22T01:26:01;4.50;;;2.00;;
16854;SDS011;8543;54.522;18.550;2023-02-22T01:28:28;3.20;;;1.90;;
16854;SDS011;8543;54.522;18.550;2023-02-22T01:30:54;4.00;;;1.80;;
16854;SDS011;8543;54.522;18.550;2023-02-22T01:33:20;3.00;;;1.70;;
16854;SDS011;8543;54.522;18.550;2023-02-22T01:35:45;4.50;;;2.30;;
16854;SDS011;8543;54.522;18.550;2023-02-22T01:38:11;3.50;;;2.30;;
16854;SDS011;8543;54.522;18.550;2023-02-22T01:40:38;3.90;;;2.10;;
16854;SDS011;8543;54.522;18.550;2023-02-22T01:45:56;4.20;;;2.10;;
16854;SDS011;8543;54.522;18.550;2023-02-22T01:51:00;3.80;;;1.90;;
16854;SDS011;8543;54.522;18.550;2023-02-22T01:53:36;4.60;;;2.30;;
16854;SDS011;8543;54.522;18.550;2023-02-22T01:56:09;6.70;;;2.40;;
16854;SDS011;8543;54.522;18.550;2023-02-22T01:58:34;3.90;;;2.20;;
16854;SDS011;8543;54.522;18.550;2023-02-22T02:01:03;4.50;;;2.20;;
16854;SDS011;8543;54.522;18.550;2023-02-22T02:03:30;4.40;;;1.90;;
16854;SDS011;8543;54.522;18.550;2023-02-22T02:05:58;3.80;;;2.00;;
16854;SDS011;8543;54.522;18.550;2023-02-22T02:08:32;4.20;;;2.20;;
16854;SDS011;8543;54.522;18.550;2023-02-22T02:11:06;4.10;;;2.20;;
16854;SDS011;8543;54.522;18.550;2023-02-22T02:13:33;3.80;;;2.00;;
16854;SDS011;8543;54.522;18.550;2023-02-22T02:15:58;4.10;;;2.20;;
16854;SDS011;8543;54.522;18.550;2023-02-22T02:18:24;3.40;;;2.10;;
16854;SDS011;8543;54.522;18.550;2023-02-22T02:24:09;4.80;;;2.50;;
16854;SDS011;8543;54.522;18.550;2023-02-22T02:26:54;4.70;;;2.20;;
16854;SDS011;8543;54.522;18.550;2023-02-22T02:40:51;5.70;;;3.00;;
16854;SDS011;8543;54.522;18.550;2023-02-22T02:43:31;5.70;;;2.60;;
16854;SDS011;8543;54.522;18.550;2023-02-22T02:48:40;6.60;;;3.00;;
16854;SDS011;8543;54.522;18.550;2023-02-22T02:51:08;7.10;;;3.30;;
16854;SDS011;8543;54.522;18.550;2023-02-22T02:53:37;6.90;;;3.30;;
16854;SDS011;8543;54.522;18.550;2023-02-22T02:56:06;7.70;;;3.90;;
16854;SDS011;8543;54.522;18.550;2023-02-22T02:58:46;5.80;;;3.40;;
16854;SDS011;8543;54.522;18.550;2023-02-22T03:01:17;8.10;;;3.50;;
16854;SDS011;8543;54.522;18.550;2023-02-22T03:04:03;7.50;;;3.90;;
16854;SDS011;8543;54.522;18.550;2023-02-22T03:15:26;6.50;;;3.20;;
16854;SDS011;8543;54.522;18.550;2023-02-22T03:18:20;8.90;;;4.50;;
16854;SDS011;8543;54.522;18.550;2023-02-22T03:23:51;9.10;;;4.60;;
16854;SDS011;8543;54.522;18.550;2023-02-22T03:26:21;8.20;;;4.40;;
16854;SDS011;8543;54.522;18.550;2023-02-22T03:28:50;11.40;;;4.30;;
16854;SDS011;8543;54.522;18.550;2023-02-22T03:31:27;8.00;;;4.30;;
16854;SDS011;8543;54.522;18.550;2023-02-22T03:34:00;7.80;;;4.50;;
16854;SDS011;8543;54.522;18.550;2023-02-22T03:38:56;8.90;;;4.90;;
16854;SDS011;8543;54.522;18.550;2023-02-22T03:41:23;9.40;;;4.70;;
16854;SDS011;8543;54.522;18.550;2023-02-22T03:43:59;10.70;;;4.90;;
16854;SDS011;8543;54.522;18.550;2023-02-22T03:46:27;9.00;;;4.50;;
16854;SDS011;8543;54.522;18.550;2023-02-22T03:51:30;9.60;;;4.40;;
16854;SDS011;8543;54.522;18.550;2023-02-22T03:53:56;6.70;;;4.10;;
16854;SDS011;8543;54.522;18.550;2023-02-22T03:56:23;8.60;;;4.00;;
16854;SDS011;8543;54.522;18.550;2023-02-22T03:58:52;6.10;;;3.60;;
16854;SDS011;8543;54.522;18.550;2023-02-22T04:01:18;6.00;;;3.50;;
16854;SDS011;8543;54.522;18.550;2023-02-22T04:03:44;7.20;;;3.80;;
16854;SDS011;8543;54.522;18.550;2023-02-22T04:06:09;7.10;;;4.10;;
16854;SDS011;8543;54.522;18.550;2023-02-22T04:08:35;6.60;;;3.80;;
16854;SDS011;8543;54.522;18.550;2023-02-22T04:11:01;7.70;;;4.80;;
16854;SDS011;8543;54.522;18.550;2023-02-22T04:13:27;11.10;;;4.60;;
16854;SDS011;8543;54.522;18.550;2023-02-22T04:15:53;10.20;;;4.30;;
16854;SDS011;8543;54.522;18.550;2023-02-22T04:18:18;6.30;;;3.90;;
16854;SDS011;8543;54.522;18.550;2023-02-22T04:20:44;9.50;;;4.10;;
16854;SDS011;8543;54.522;18.550;2023-02-22T04:23:09;8.20;;;4.40;;
16854;SDS011;8543;54.522;18.550;2023-02-22T04:25:35;9.20;;;4.90;;
16854;SDS011;8543;54.522;18.550;2023-02-22T04:28:00;10.00;;;5.30;;
16854;SDS011;8543;54.522;18.550;2023-02-22T04:30:26;10.00;;;5.30;;
16854;SDS011;8543;54.522;18.550;2023-02-22T04:32:54;10.20;;;5.20;;
16854;SDS011;8543;54.522;18.550;2023-02-22T04:35:20;11.50;;;5.20;;
16854;SDS011;8543;54.522;18.550;2023-02-22T04:37:45;10.30;;;4.60;;
16854;SDS011;8543;54.522;18.550;2023-02-22T04:40:11;11.10;;;4.90;;
16854;SDS011;8543;54.522;18.550;2023-02-22T04:42:37;9.50;;;4.80;;
16854;SDS011;8543;54.522;18.550;2023-02-22T04:45:03;13.00;;;5.40;;
16854;SDS011;8543;54.522;18.550;2023-02-22T04:47:32;9.50;;;4.80;;
16854;SDS011;8543;54.522;18.550;2023-02-22T04:49:58;9.20;;;5.10;;
16854;SDS011;8543;54.522;18.550;2023-02-22T04:52:24;11.10;;;4.50;;
16854;SDS011;8543;54.522;18.550;2023-02-22T04:54:50;10.50;;;4.80;;
16854;SDS011;8543;54.522;18.550;2023-02-22T04:57:16;10.40;;;5.00;;
16854;SDS011;8543;54.522;18.550;2023-02-22T04:59:41;7.60;;;4.70;;
16854;SDS011;8543;54.522;18.550;2023-02-22T05:02:07;8.40;;;4.80;;
16854;SDS011;8543;54.522;18.550;2023-02-22T05:04:32;11.30;;;4.80;;
16854;SDS011;8543;54.522;18.550;2023-02-22T05:06:58;8.30;;;4.90;;
16854;SDS011;8543;54.522;18.550;2023-02-22T05:09:23;11.30;;;5.20;;
16854;SDS011;8543;54.522;18.550;2023-02-22T05:11:49;9.20;;;5.30;;
16854;SDS011;8543;54.522;18.550;2023-02-22T05:14:14;11.20;;;4.70;;
16854;SDS011;8543;54.522;18.550;2023-02-22T05:16:39;9.60;;;5.00;;
16854;SDS011;8543;54.522;18.550;2023-02-22T05:19:05;9.50;;;5.40;;
16854;SDS011;8543;54.522;18.550;2023-02-22T05:21:30;9.40;;;4.60;;
16854;SDS011;8543;54.522;18.550;2023-02-22T05:23:56;8.80;;;4.70;;
16854;SDS011;8543;54.522;18.550;2023-02-22T05:26:21;9.50;;;5.30;;
16854;SDS011;8543;54.522;18.550;2023-02-22T05:28:47;8.90;;;4.80;;
16854;SDS011;8543;54.522;18.550;2023-02-22T05:31:13;11.60;;;4.80;;
16854;SDS011;8543;54.522;18.550;2023-02-22T05:33:38;9.10;;;5.10;;
16854;SDS011;8543;54.522;18.550;2023-02-22T05:36:04;10.00;;;5.20;;
16854;SDS011;8543;54.522;18.550;2023-02-22T05:38:31;8.50;;;4.90;;
16854;SDS011;8543;54.522;18.550;2023-02-22T05:40:57;9.50;;;5.10;;
16854;SDS011;8543;54.522;18.550;2023-02-22T05:43:22;14.80;;;5.80;;
16854;SDS011;8543;54.522;18.550;2023-02-22T05:45:48;8.00;;;4.70;;
16854;SDS011;8543;54.522;18.550;2023-02-22T05:48:13;9.60;;;5.00;;
16854;SDS011;8543;54.522;18.550;2023-02-22T05:50:38;11.10;;;4.60;;
16854;SDS011;8543;54.522;18.550;2023-02-22T05:53:04;7.90;;;3.90;;
16854;SDS011;8543;54.522;18.550;2023-02-22T05:55:30;8.90;;;3.70;;
16854;SDS011;8543;54.522;18.550;2023-02-22T05:57:57;8.00;;;3.60;;
16854;SDS011;8543;54.522;18.550;2023-02-22T06:00:26;6.00;;;3.50;;
16854;SDS011;8543;54.522;18.550;2023-02-22T06:03:11;8.70;;;3.80;;
16854;SDS011;8543;54.522;18.550;2023-02-22T06:05:36;7.50;;;3.90;;
16854;SDS011;8543;54.522;18.550;2023-02-22T06:08:02;8.20;;;4.70;;
16854;SDS011;8543;54.522;18.550;2023-02-22T06:10:29;7.20;;;3.90;;
16854;SDS011;8543;54.522;18.550;2023-02-22T06:12:55;5.50;;;3.30;;
16854;SDS011;8543;54.522;18.550;2023-02-22T06:15:22;4.00;;;2.50;;
16854;SDS011;8543;54.522;18.550;2023-02-22T06:17:49;5.10;;;2.60;;
16854;SDS011;8543;54.522;18.550;2023-02-22T06:20:16;4.40;;;2.40;;
16854;SDS011;8543;54.522;18.550;2023-02-22T06:22:45;5.90;;;2.60;;
16854;SDS011;8543;54.522;18.550;2023-02-22T06:25:12;5.30;;;2.50;;
16854;SDS011;8543;54.522;18.550;2023-02-22T06:27:38;4.40;;;2.40;;
16854;SDS011;8543;54.522;18.550;2023-02-22T06:30:04;4.60;;;2.30;;
16854;SDS011;8543;54.522;18.550;2023-02-22T06:32:30;4.10;;;2.60;;
16854;SDS011;8543;54.522;18.550;2023-02-22T06:34:55;4.30;;;2.10;;
16854;SDS011;8543;54.522;18.550;2023-02-22T06:37:21;4.10;;;2.20;;
16854;SDS011;8543;54.522;18.550;2023-02-22T06:39:46;4.40;;;2.10;;
16854;SDS011;8543;54.522;18.550;2023-02-22T06:42:11;4.60;;;2.40;;
16854;SDS011;8543;54.522;18.550;2023-02-22T06:44:37;4.10;;;2.40;;
16854;SDS011;8543;54.522;18.550;2023-02-22T06:47:02;3.80;;;2.20;;
16854;SDS011;8543;54.522;18.550;2023-02-22T06:49:28;4.00;;;2.30;;
16854;SDS011;8543;54.522;18.550;2023-02-22T06:51:53;3.80;;;2.30;;
16854;SDS011;8543;54.522;18.550;2023-02-22T06:54:19;4.50;;;2.40;;
16854;SDS011;8543;54.522;18.550;2023-02-22T06:56:46;3.70;;;2.20;;
16854;SDS011;8543;54.522;18.550;2023-02-22T06:59:11;5.00;;;2.40;;
16854;SDS011;8543;54.522;18.550;2023-02-22T07:01:39;5.20;;;2.60;;
16854;SDS011;8543;54.522;18.550;2023-02-22T07:04:05;4.20;;;2.30;;
16854;SDS011;8543;54.522;18.550;2023-02-22T07:06:30;4.60;;;2.50;;
16854;SDS011;8543;54.522;18.550;2023-02-22T07:08:56;3.80;;;2.20;;
16854;SDS011;8543;54.522;18.550;2023-02-22T07:11:21;4.50;;;2.50;;
16854;SDS011;8543;54.522;18.550;2023-02-22T07:13:47;3.10;;;2.10;;
16854;SDS011;8543;54.522;18.550;2023-02-22T07:16:12;5.40;;;2.50;;
16854;SDS011;8543;54.522;18.550;2023-02-22T07:18:38;4.30;;;2.30;;
16854;SDS011;8543;54.522;18.550;2023-02-22T07:21:04;5.00;;;2.20;;
16854;SDS011;8543;54.522;18.550;2023-02-22T07:23:30;4.30;;;2.30;;
16854;SDS011;8543;54.522;18.550;2023-02-22T07:25:58;4.50;;;2.40;;
16854;SDS011;8543;54.522;18.550;2023-02-22T07:28:24;5.20;;;2.60;;
16854;SDS011;8543;54.522;18.550;2023-02-22T07:30:49;4.10;;;2.40;;
16854;SDS011;8543;54.522;18.550;2023-02-22T07:33:15;4.30;;;2.40;;
16854;SDS011;8543;54.522;18.550;2023-02-22T07:35:47;4.60;;;2.50;;
16854;SDS011;8543;54.522;18.550;2023-02-22T07:38:14;4.50;;;2.20;;
16854;SDS011;8543;54.522;18.550;2023-02-22T07:40:41;4.80;;;2.50;;
16854;SDS011;8543;54.522;18.550;2023-02-22T07:43:14;3.20;;;2.00;;
16854;SDS011;8543;54.522;18.550;2023-02-22T07:45:40;3.80;;;2.10;;
16854;SDS011;8543;54.522;18.550;2023-02-22T07:48:06;4.30;;;2.40;;
16854;SDS011;8543;54.522;18.550;2023-02-22T07:50:32;4.40;;;2.20;;
16854;SDS011;8543;54.522;18.550;2023-02-22T07:52:59;4.40;;;2.30;;
16854;SDS011;8543;54.522;18.550;2023-02-22T07:55:26;3.50;;;2.20;;
16854;SDS011;8543;54.522;18.550;2023-02-22T07:57:55;3.70;;;2.30;;
16854;SDS011;8543;54.522;18.550;2023-02-22T08:02:52;4.20;;;2.00;;
16854;SDS011;8543;54.522;18.550;2023-02-22T08:05:18;3.30;;;1.90;;
16854;SDS011;8543;54.522;18.550;2023-02-22T08:07:44;4.30;;;2.40;;
16854;SDS011;8543;54.522;18.550;2023-02-22T08:10:10;3.50;;;2.10;;
16854;SDS011;8543;54.522;18.550;2023-02-22T08:12:38;5.40;;;2.10;;
16854;SDS011;8543;54.522;18.550;2023-02-22T08:15:04;3.90;;;2.30;;
16854;SDS011;8543;54.522;18.550;2023-02-22T08:17:30;4.40;;;2.10;;
16854;SDS011;8543;54.522;18.550;2023-02-22T08:19:56;4.70;;;2.50;;
16854;SDS011;8543;54.522;18.550;2023-02-22T08:22:21;4.00;;;2.10;;
16854;SDS011;8543;54.522;18.550;2023-02-22T08:24:48;3.50;;;2.00;;
16854;SDS011;8543;54.522;18.550;2023-02-22T08:27:21;3.90;;;2.20;;
16854;SDS011;8543;54.522;18.550;2023-02-22T08:29:50;3.00;;;1.90;;
16854;SDS011;8543;54.522;18.550;2023-02-22T08:32:16;4.00;;;2.20;;
16854;SDS011;8543;54.522;18.550;2023-02-22T08:34:42;5.20;;;2.40;;
16854;SDS011;8543;54.522;18.550;2023-02-22T08:37:07;4.00;;;2.20;;
16854;SDS011;8543;54.522;18.550;2023-02-22T08:39:33;3.70;;;2.00;;
16854;SDS011;8543;54.522;18.550;2023-02-22T08:41:58;5.30;;;2.30;;
16854;SDS011;8543;54.522;18.550;2023-02-22T08:44:24;5.90;;;2.40;;
16854;SDS011;8543;54.522;18.550;2023-02-22T08:46:49;3.70;;;2.10;;
16854;SDS011;8543;54.522;18.550;2023-02-22T08:49:15;4.40;;;2.20;;
16854;SDS011;8543;54.522;18.550;2023-02-22T08:51:41;4.10;;;2.30;;
16854;SDS011;8543;54.522;18.550;2023-02-22T08:54:07;3.80;;;2.30;;
16854;SDS011;8543;54.522;18.550;2023-02-22T08:56:32;4.40;;;2.30;;
16854;SDS011;8543;54.522;18.550;2023-02-22T08:58:58;4.40;;;2.50;;
16854;SDS011;8543;54.522;18.550;2023-02-22T09:01:23;4.40;;;2.20;;
16854;SDS011;8543;54.522;18.550;2023-02-22T09:03:49;4.20;;;2.30;;
16854;SDS011;8543;54.522;18.550;2023-02-22T09:06:16;7.20;;;2.50;;
16854;SDS011;8543;54.522;18.550;2023-02-22T09:08:42;5.20;;;2.90;;
16854;SDS011;8543;54.522;18.550;2023-02-22T09:11:08;9.00;;;4.90;;
16854;SDS011;8543;54.522;18.550;2023-02-22T09:13:33;9.50;;;5.80;;
16854;SDS011;8543;54.522;18.550;2023-02-22T09:15:59;8.50;;;5.30;;
16854;SDS011;8543;54.522;18.550;2023-02-22T09:18:25;11.30;;;6.40;;
16854;SDS011;8543;54.522;18.550;2023-02-22T09:20:51;11.90;;;6.70;;
16854;SDS011;8543;54.522;18.550;2023-02-22T09:23:17;12.40;;;7.00;;
16854;SDS011;8543;54.522;18.550;2023-02-22T09:25:45;12.00;;;7.00;;
16854;SDS011;8543;54.522;18.550;2023-02-22T09:28:11;11.50;;;6.70;;
16854;SDS011;8543;54.522;18.550;2023-02-22T09:30:36;11.40;;;6.20;;
16854;SDS011;8543;54.522;18.550;2023-02-22T09:33:11;10.90;;;6.10;;
16854;SDS011;8543;54.522;18.550;2023-02-22T09:35:39;10.40;;;6.30;;
16854;SDS011;8543;54.522;18.550;2023-02-22T09:38:10;13.20;;;6.90;;
16854;SDS011;8543;54.522;18.550;2023-02-22T09:40:39;14.80;;;7.20;;
16854;SDS011;8543;54.522;18.550;2023-02-22T09:46:06;9.10;;;5.60;;
16854;SDS011;8543;54.522;18.550;2023-02-22T09:51:13;9.90;;;5.30;;
16854;SDS011;8543;54.522;18.550;2023-02-22T09:53:43;7.10;;;4.60;;
16854;SDS011;8543;54.522;18.550;2023-02-22T09:56:10;9.90;;;5.90;;
16854;SDS011;8543;54.522;18.550;2023-02-22T09:58:40;9.90;;;5.70;;
16854;SDS011;8543;54.522;18.550;2023-02-22T10:06:15;6.40;;;3.90;;
16854;SDS011;8543;54.522;18.550;2023-02-22T10:08:45;10.40;;;4.90;;
16854;SDS011;8543;54.522;18.550;2023-02-22T10:20:16;12.30;;;5.10;;
16854;SDS011;8543;54.522;18.550;2023-02-22T10:24:58;7.70;;;3.70;;
16854;SDS011;8543;54.522;18.550;2023-02-22T10:27:38;7.40;;;3.50;;
16854;SDS011;8543;54.522;18.550;2023-02-22T10:30:09;5.00;;;3.00;;
16854;SDS011;8543;54.522;18.550;2023-02-22T10:32:45;5.00;;;2.40;;
16854;SDS011;8543;54.522;18.550;2023-02-22T10:35:19;4.40;;;2.30;;
16854;SDS011;8543;54.522;18.550;2023-02-22T10:37:47;4.60;;;2.40;;
16854;SDS011;8543;54.522;18.550;2023-02-22T10:40:18;4.00;;;2.70;;
16854;SDS011;8543;54.522;18.550;2023-02-22T10:42:48;4.00;;;2.70;;
16854;SDS011;8543;54.522;18.550;2023-02-22T10:45:24;6.60;;;2.90;;
16854;SDS011;8543;54.522;18.550;2023-02-22T10:47:51;5.90;;;3.00;;
16854;SDS011;8543;54.522;18.550;2023-02-22T10:50:19;7.00;;;3.40;;
16854;SDS011;8543;54.522;18.550;2023-02-22T10:52:49;7.30;;;3.90;;
16854;SDS011;8543;54.522;18.550;2023-02-22T10:55:15;6.00;;;3.30;;
16854;SDS011;8543;54.522;18.550;2023-02-22T10:57:43;6.00;;;3.20;;
16854;SDS011;8543;54.522;18.550;2023-02-22T11:02:50;4.90;;;2.90;;
16854;SDS011;8543;54.522;18.550;2023-02-22T11:10:45;4.30;;;2.60;;
16854;SDS011;8543;54.522;18.550;2023-02-22T11:13:18;6.20;;;2.80;;
16854;SDS011;8543;54.522;18.550;2023-02-22T11:21:44;4.40;;;2.30;;
16854;SDS011;8543;54.522;18.550;2023-02-22T11:24:11;5.00;;;2.70;;
16854;SDS011;8543;54.522;18.550;2023-02-22T11:26:40;4.50;;;2.60;;
16854;SDS011;8543;54.522;18.550;2023-02-22T11:29:12;4.60;;;2.60;;
16854;SDS011;8543;54.522;18.550;2023-02-22T11:31:52;4.50;;;2.60;;
16854;SDS011;8543;54.522;18.550;2023-02-22T11:34:26;5.50;;;2.70;;
16854;SDS011;8543;54.522;18.550;2023-02-22T11:40:02;4.50;;;2.60;;
16854;SDS011;8543;54.522;18.550;2023-02-22T11:42:29;4.90;;;2.40;;
16854;SDS011;8543;54.522;18.550;2023-02-22T11:47:58;4.60;;;2.50;;
16854;SDS011;8543;54.522;18.550;2023-02-22T11:55:50;4.00;;;2.50;;
16854;SDS011;8543;54.522;18.550;2023-02-22T11:58:23;4.30;;;2.60;;
16854;SDS011;8543;54.522;18.550;2023-02-22T12:01:00;4.50;;;2.40;;
16854;SDS011;8543;54.522;18.550;2023-02-22T12:03:40;4.40;;;2.30;;
16854;SDS011;8543;54.522;18.550;2023-02-22T12:12:54;4.90;;;2.50;;
16854;SDS011;8543;54.522;18.550;2023-02-22T12:20:22;4.20;;;2.50;;
16854;SDS011;8543;54.522;18.550;2023-02-22T12:23:06;3.70;;;2.20;;
16854;SDS011;8543;54.522;18.550;2023-02-22T12:25:40;4.50;;;2.50;;
16854;SDS011;8543;54.522;18.550;2023-02-22T12:28:25;4.90;;;2.80;;
16854;SDS011;8543;54.522;18.550;2023-02-22T12:31:05;4.10;;;2.20;;
16854;SDS011;8543;54.522;18.550;2023-02-22T12:34:22;4.50;;;2.50;;
16854;SDS011;8543;54.522;18.550;2023-02-22T12:36:31;4.20;;;2.50;;
16854;SDS011;8543;54.522;18.550;2023-02-22T12:39:04;4.30;;;2.50;;
16854;SDS011;8543;54.522;18.550;2023-02-22T12:41:46;4.70;;;2.40;;
16854;SDS011;8543;54.522;18.550;2023-02-22T12:44:24;4.90;;;2.70;;
16854;SDS011;8543;54.522;18.550;2023-02-22T12:46:54;4.70;;;2.40;;
16854;SDS011;8543;54.522;18.550;2023-02-22T12:57:44;4.40;;;2.60;;
16854;SDS011;8543;54.522;18.550;2023-02-22T13:05:21;4.60;;;2.60;;
16854;SDS011;8543;54.522;18.550;2023-02-22T13:10:30;4.00;;;2.50;;
16854;SDS011;8543;54.522;18.550;2023-02-22T13:27:17;5.90;;;2.70;;
16854;SDS011;8543;54.522;18.550;2023-02-22T13:29:51;4.90;;;2.80;;
16854;SDS011;8543;54.522;18.550;2023-02-22T13:41:08;5.50;;;2.40;;
16854;SDS011;8543;54.522;18.550;2023-02-22T13:52:05;3.40;;;2.00;;
16854;SDS011;8543;54.522;18.550;2023-02-22T13:57:16;4.60;;;2.20;;
16854;SDS011;8543;54.522;18.550;2023-02-22T14:13:19;6.10;;;2.70;;
16854;SDS011;8543;54.522;18.550;2023-02-22T14:16:21;4.40;;;2.50;;
16854;SDS011;8543;54.522;18.550;2023-02-22T14:18:42;4.00;;;2.40;;
16854;SDS011;8543;54.522;18.550;2023-02-22T14:21:13;4.10;;;2.60;;
16854;SDS011;8543;54.522;18.550;2023-02-22T14:23:43;4.30;;;2.40;;
16854;SDS011;8543;54.522;18.550;2023-02-22T14:34:11;5.30;;;2.40;;
16854;SDS011;8543;54.522;18.550;2023-02-22T14:36:50;3.20;;;2.10;;
16854;SDS011;8543;54.522;18.550;2023-02-22T14:50:26;4.70;;;2.50;;
16854;SDS011;8543;54.522;18.550;2023-02-22T14:55:57;4.10;;;2.20;;
16854;SDS011;8543;54.522;18.550;2023-02-22T14:58:43;4.40;;;2.20;;
16854;SDS011;8543;54.522;18.550;2023-02-22T15:01:23;3.60;;;2.20;;
16854;SDS011;8543;54.522;18.550;2023-02-22T15:03:54;4.60;;;2.30;;
16854;SDS011;8543;54.522;18.550;2023-02-22T15:06:24;7.60;;;2.80;;
16854;SDS011;8543;54.522;18.550;2023-02-22T15:09:11;5.60;;;2.30;;
16854;SDS011;8543;54.522;18.550;2023-02-22T15:11:39;4.20;;;2.60;;
16854;SDS011;8543;54.522;18.550;2023-02-22T15:14:14;4.10;;;2.30;;
16854;SDS011;8543;54.522;18.550;2023-02-22T15:16:45;5.00;;;2.30;;
16854;SDS011;8543;54.522;18.550;2023-02-22T15:19:13;3.70;;;2.10;;
16854;SDS011;8543;54.522;18.550;2023-02-22T15:21:46;4.40;;;2.60;;
16854;SDS011;8543;54.522;18.550;2023-02-22T15:24:17;4.30;;;2.30;;
16854;SDS011;8543;54.522;18.550;2023-02-22T15:26:46;4.50;;;2.50;;
16854;SDS011;8543;54.522;18.550;2023-02-22T15:29:32;5.30;;;2.30;;
16854;SDS011;8543;54.522;18.550;2023-02-22T15:32:00;4.10;;;2.30;;
16854;SDS011;8543;54.522;18.550;2023-02-22T15:34:27;4.70;;;2.30;;
16854;SDS011;8543;54.522;18.550;2023-02-22T15:36:55;3.80;;;2.20;;
16854;SDS011;8543;54.522;18.550;2023-02-22T15:42:05;4.30;;;2.40;;
16854;SDS011;8543;54.522;18.550;2023-02-22T15:44:38;3.40;;;2.20;;
16854;SDS011;8543;54.522;18.550;2023-02-22T15:47:05;3.40;;;2.20;;
16854;SDS011;8543;54.522;18.550;2023-02-22T15:49:31;3.60;;;2.20;;
16854;SDS011;8543;54.522;18.550;2023-02-22T15:52:06;4.30;;;2.50;;
16854;SDS011;8543;54.522;18.550;2023-02-22T15:54:44;4.00;;;2.30;;
16854;SDS011;8543;54.522;18.550;2023-02-22T15:57:15;3.90;;;2.20;;
16854;SDS011;8543;54.522;18.550;2023-02-22T15:59:51;3.20;;;2.10;;
16854;SDS011;8543;54.522;18.550;2023-02-22T16:02:19;3.90;;;2.20;;
16854;SDS011;8543;54.522;18.550;2023-02-22T16:05:06;5.00;;;2.30;;
16854;SDS011;8543;54.522;18.550;2023-02-22T16:07:41;4.90;;;2.20;;
16854;SDS011;8543;54.522;18.550;2023-02-22T16:10:19;5.90;;;2.80;;
16854;SDS011;8543;54.522;18.550;2023-02-22T16:12:45;3.90;;;2.40;;
16854;SDS011;8543;54.522;18.550;2023-02-22T16:15:16;4.20;;;2.60;;
16854;SDS011;8543;54.522;18.550;2023-02-22T16:17:42;4.80;;;3.00;;
16854;SDS011;8543;54.522;18.550;2023-02-22T16:22:37;6.10;;;2.70;;
16854;SDS011;8543;54.522;18.550;2023-02-22T16:25:11;3.80;;;2.40;;
16854;SDS011;8543;54.522;18.550;2023-02-22T16:27:49;5.20;;;2.80;;
16854;SDS011;8543;54.522;18.550;2023-02-22T16:32:42;4.00;;;2.50;;
16854;SDS011;8543;54.522;18.550;2023-02-22T16:35:08;5.10;;;2.40;;
16854;SDS011;8543;54.522;18.550;2023-02-22T16:40:37;4.10;;;2.60;;
16854;SDS011;8543;54.522;18.550;2023-02-22T16:43:12;4.80;;;2.70;;
16854;SDS011;8543;54.522;18.550;2023-02-22T16:45:39;4.10;;;2.50;;
16854;SDS011;8543;54.522;18.550;2023-02-22T16:48:16;4.80;;;2.60;;
16854;SDS011;8543;54.522;18.550;2023-02-22T16:50:43;4.10;;;2.50;;
16854;SDS011;8543;54.522;18.550;2023-02-22T16:53:10;3.90;;;2.40;;
16854;SDS011;8543;54.522;18.550;2023-02-22T16:55:35;4.60;;;2.40;;
16854;SDS011;8543;54.522;18.550;2023-02-22T16:58:01;4.90;;;2.60;;
16854;SDS011;8543;54.522;18.550;2023-02-22T17:00:27;4.20;;;2.50;;
16854;SDS011;8543;54.522;18.550;2023-02-22T17:03:04;5.20;;;2.80;;
16854;SDS011;8543;54.522;18.550;2023-02-22T17:05:30;4.70;;;2.70;;
16854;SDS011;8543;54.522;18.550;2023-02-22T17:08:00;4.80;;;2.50;;
16854;SDS011;8543;54.522;18.550;2023-02-22T17:10:27;4.10;;;2.30;;
16854;SDS011;8543;54.522;18.550;2023-02-22T17:12:53;4.20;;;2.40;;
16854;SDS011;8543;54.522;18.550;2023-02-22T17:15:26;3.90;;;2.40;;
16854;SDS011;8543;54.522;18.550;2023-02-22T17:17:54;4.70;;;2.70;;
16854;SDS011;8543;54.522;18.550;2023-02-22T17:20:20;4.10;;;2.50;;
16854;SDS011;8543;54.522;18.550;2023-02-22T17:22:59;4.40;;;2.70;;
16854;SDS011;8543;54.522;18.550;2023-02-22T17:25:33;5.00;;;2.80;;
16854;SDS011;8543;54.522;18.550;2023-02-22T17:28:01;5.40;;;2.60;;
16854;SDS011;8543;54.522;18.550;2023-02-22T17:30:27;4.50;;;2.50;;
16854;SDS011;8543;54.522;18.550;2023-02-22T17:32:55;4.50;;;2.70;;
16854;SDS011;8543;54.522;18.550;2023-02-22T17:35:28;4.80;;;2.50;;
16854;SDS011;8543;54.522;18.550;2023-02-22T17:37:55;4.90;;;2.80;;
16854;SDS011;8543;54.522;18.550;2023-02-22T17:40:20;4.80;;;2.60;;
16854;SDS011;8543;54.522;18.550;2023-02-22T17:42:46;4.00;;;2.40;;
16854;SDS011;8543;54.522;18.550;2023-02-22T17:45:12;5.30;;;2.70;;
16854;SDS011;8543;54.522;18.550;2023-02-22T17:47:41;5.10;;;2.90;;
16854;SDS011;8543;54.522;18.550;2023-02-22T17:50:11;4.50;;;2.40;;
16854;SDS011;8543;54.522;18.550;2023-02-22T17:52:38;4.20;;;2.40;;
16854;SDS011;8543;54.522;18.550;2023-02-22T17:55:04;4.80;;;2.40;;
16854;SDS011;8543;54.522;18.550;2023-02-22T17:57:30;5.20;;;2.30;;
16854;SDS011;8543;54.522;18.550;2023-02-22T17:59:57;3.40;;;2.20;;
16854;SDS011;8543;54.522;18.550;2023-02-22T18:02:23;4.70;;;2.50;;
16854;SDS011;8543;54.522;18.550;2023-02-22T18:04:48;4.00;;;2.10;;
16854;SDS011;8543;54.522;18.550;2023-02-22T18:07:13;4.60;;;3.00;;
16854;SDS011;8543;54.522;18.550;2023-02-22T18:09:43;5.80;;;2.90;;
16854;SDS011;8543;54.522;18.550;2023-02-22T18:12:08;3.50;;;2.20;;